createdAt,value
2022-10-08T00:01:48.348Z,11.28
2022-10-08T00:06:53.133Z,11.77
2022-10-08T00:11:57.813Z,11.87
2022-10-08T00:17:01.253Z,11.71
2022-10-08T00:22:05.982Z,11.79
2022-10-08T00:27:10.223Z,11.71
2022-10-08T00:32:13.656Z,11.66
2022-10-08T00:37:18.338Z,11.41
2022-10-08T00:42:21.852Z,11.53
2022-10-08T00:47:37.777Z,12.09
2022-10-08T00:52:45.749Z,12.37
2022-10-08T00:57:49.879Z,12.58
2022-10-08T01:02:54.257Z,13.06
2022-10-08T01:08:07.456Z,13.01
2022-10-08T01:13:20.730Z,13.18
2022-10-08T01:18:34.222Z,13.26
2022-10-08T01:23:59.233Z,13.17
2022-10-08T01:29:08.285Z,13.30
2022-10-08T01:34:18.976Z,13.26
2022-10-08T01:39:26.796Z,13.26
2022-10-08T01:44:35.832Z,13.16
2022-10-08T01:49:44.737Z,13.27
2022-10-08T01:54:50.509Z,13.28
2022-10-08T01:59:59.227Z,13.32
2022-10-08T02:05:02.966Z,13.27
2022-10-08T02:10:09.037Z,13.24
2022-10-08T02:15:17.271Z,13.06
2022-10-08T02:20:26.955Z,13.12
2022-10-08T02:25:34.499Z,13.06
2022-10-08T02:30:44.490Z,12.98
2022-10-08T02:35:51.940Z,12.83
2022-10-08T02:40:59.569Z,12.83
2022-10-08T02:46:09.702Z,12.68
2022-10-08T02:51:18.704Z,12.41
2022-10-08T02:56:28.449Z,12.47
2022-10-08T03:01:39.317Z,12.30
2022-10-08T03:06:42.976Z,12.19
2022-10-08T03:11:46.921Z,12.09
2022-10-08T03:16:51.875Z,12.03
2022-10-08T03:21:56.551Z,11.94
2022-10-08T03:26:59.933Z,11.91
2022-10-08T03:32:04.796Z,11.76
2022-10-08T03:37:10.798Z,11.53
2022-10-08T03:42:14.308Z,11.60
2022-10-08T03:47:18.920Z,11.48
2022-10-08T03:52:22.249Z,11.38
2022-10-08T03:57:25.631Z,11.32
2022-10-08T04:02:30.422Z,11.19
2022-10-08T04:07:33.695Z,11.26
2022-10-08T04:12:38.167Z,11.21
2022-10-08T04:17:43.612Z,11.10
2022-10-08T04:22:49.010Z,10.86
2022-10-08T04:27:52.706Z,10.87
2022-10-08T04:32:57.483Z,10.72
2022-10-08T04:38:00.814Z,10.45
2022-10-08T04:43:04.217Z,10.41
2022-10-08T04:48:08.983Z,10.44
2022-10-08T04:53:12.210Z,10.28
2022-10-08T04:58:15.501Z,10.31
2022-10-08T05:03:20.234Z,10.32
2022-10-08T05:08:23.733Z,10.40
2022-10-08T05:13:27.401Z,10.35
2022-10-08T05:18:32.762Z,10.34
2022-10-08T05:23:36.628Z,10.40
2022-10-08T05:28:40.076Z,10.21
2022-10-08T05:33:45.244Z,10.02
2022-10-08T05:38:48.959Z,10.00
2022-10-08T05:43:54.575Z,9.91
2022-10-08T05:49:01.355Z,9.96
2022-10-08T05:54:05.118Z,9.90
2022-10-08T05:59:08.606Z,10.05
2022-10-08T06:04:14.184Z,10.07
2022-10-08T06:09:19.596Z,10.12
2022-10-08T06:14:24.354Z,10.03
2022-10-08T06:19:28.991Z,10.24
2022-10-08T06:24:33.637Z,10.13
2022-10-08T06:29:37.839Z,10.07
2022-10-08T06:34:42.645Z,10.46
2022-10-08T06:39:48.471Z,10.60
2022-10-08T06:44:52.249Z,10.86
2022-10-08T06:49:57.154Z,10.59
2022-10-08T06:55:00.746Z,11.00
2022-10-08T07:00:04.758Z,11.19
2022-10-08T07:05:10.686Z,11.29
2022-10-08T07:10:18.258Z,11.68
2022-10-08T07:15:22.898Z,12.28
2022-10-08T07:20:27.737Z,12.51
2022-10-08T07:25:31.571Z,12.68
2022-10-08T07:30:38.597Z,13.06
2022-10-08T07:35:43.760Z,13.39
2022-10-08T07:40:48.649Z,13.70
2022-10-08T07:45:52.301Z,13.99
2022-10-08T07:50:57.334Z,13.85
2022-10-08T07:56:01.045Z,14.57
2022-10-08T08:01:06.571Z,15.36
2022-10-08T08:06:13.244Z,15.29
2022-10-08T08:11:18.884Z,14.38
2022-10-08T08:16:25.416Z,14.62
2022-10-08T08:21:32.344Z,14.09
2022-10-08T08:26:39.015Z,13.84
2022-10-08T08:31:44.359Z,13.95
2022-10-08T08:36:51.103Z,13.77
2022-10-08T08:42:07.426Z,14.22
2022-10-08T08:47:18.891Z,15.00
2022-10-08T08:52:27.345Z,15.03
2022-10-08T08:57:41.375Z,15.35
2022-10-08T09:02:52.832Z,15.48
2022-10-08T09:08:05.366Z,15.76
2022-10-08T09:13:18.931Z,16.01
2022-10-08T09:18:22.445Z,16.26
2022-10-08T09:23:28.038Z,16.64
2022-10-08T09:28:44.587Z,16.90
2022-10-08T09:33:56.093Z,17.21
2022-10-08T09:39:02.042Z,17.31
2022-10-08T09:44:16.325Z,17.31
2022-10-08T09:49:29.046Z,17.60
2022-10-08T09:54:43.394Z,17.30
2022-10-08T09:59:51.610Z,17.03
2022-10-08T10:04:57.084Z,17.43
2022-10-08T10:10:04.153Z,16.90
2022-10-08T10:15:16.268Z,17.30
2022-10-08T10:20:24.721Z,17.27
2022-10-08T10:25:38.373Z,18.15
2022-10-08T10:30:50.682Z,18.10
2022-10-08T10:35:57.134Z,17.50
2022-10-08T10:41:14.285Z,18.16
2022-10-08T10:46:33.196Z,18.35
2022-10-08T10:52:00.681Z,18.30
2022-10-08T10:57:10.809Z,18.07
2022-10-08T11:02:26.180Z,17.30
2022-10-08T11:07:53.907Z,16.60
2022-10-08T11:13:17.716Z,15.97
2022-10-08T11:18:30.989Z,16.05
2022-10-08T11:23:56.575Z,16.17
2022-10-08T11:29:14.404Z,15.86
2022-10-08T11:34:24.693Z,15.81
2022-10-08T11:39:37.143Z,14.89
2022-10-08T11:44:43.084Z,14.89
2022-10-08T11:49:55.098Z,14.78
2022-10-08T11:55:01.189Z,14.03
2022-10-08T12:00:08.837Z,13.49
2022-10-08T12:05:32.628Z,13.49
2022-10-08T12:10:38.180Z,13.60
2022-10-08T12:15:54.099Z,13.51
2022-10-08T12:21:31.100Z,12.86
2022-10-08T12:26:34.551Z,13.54
2022-10-08T12:31:42.143Z,13.36
2022-10-08T12:37:04.047Z,13.27
2022-10-08T12:42:18.960Z,13.17
2022-10-08T12:47:35.876Z,13.25
2022-10-08T12:52:39.558Z,13.08
2022-10-08T12:57:44.556Z,13.14
2022-10-08T13:03:00.543Z,13.07
2022-10-08T13:08:19.964Z,13.54
2022-10-08T13:13:44.961Z,13.57
2022-10-08T13:18:53.623Z,13.77
2022-10-08T13:23:57.312Z,13.89
2022-10-08T13:29:19.507Z,13.93
2022-10-08T13:34:27.212Z,14.13
2022-10-08T13:39:34.695Z,14.25
2022-10-08T13:44:39.812Z,14.90
2022-10-08T13:49:44.857Z,14.57
2022-10-08T13:54:49.984Z,15.17
2022-10-08T13:59:53.651Z,15.18
2022-10-08T14:04:58.753Z,15.57
2022-10-08T14:10:03.923Z,15.48
2022-10-08T14:15:08.984Z,15.37
2022-10-08T14:20:14.004Z,15.19
2022-10-08T14:25:19.774Z,15.15
2022-10-08T14:30:23.347Z,15.23
2022-10-08T14:35:28.321Z,14.96
2022-10-08T14:40:31.896Z,15.00
2022-10-08T14:45:35.521Z,14.84
2022-10-08T14:50:42.705Z,14.60
2022-10-08T14:56:10.571Z,14.58
2022-10-08T15:01:09.882Z,14.58
2022-10-08T15:06:14.763Z,14.40
2022-10-08T15:11:18.168Z,14.16
2022-10-08T15:16:22.097Z,14.02
2022-10-08T15:21:26.929Z,14.23
2022-10-08T15:26:30.346Z,14.36
2022-10-08T15:31:33.805Z,14.12
2022-10-08T15:36:38.710Z,14.10
2022-10-08T15:41:43.582Z,14.20
2022-10-08T15:46:47.600Z,13.43
2022-10-08T15:51:52.218Z,13.34
2022-10-08T15:56:55.695Z,12.88
2022-10-08T16:01:59.459Z,12.35
2022-10-08T16:07:04.281Z,12.21
2022-10-08T16:12:07.782Z,12.24
2022-10-08T16:17:11.262Z,12.19
2022-10-08T16:22:16.249Z,12.12
2022-10-08T16:27:19.720Z,11.92
2022-10-08T16:32:23.441Z,12.01
2022-10-08T16:37:28.744Z,12.07
2022-10-08T16:42:32.669Z,11.75
2022-10-08T16:47:36.289Z,11.76
2022-10-08T16:52:41.531Z,11.66
2022-10-08T16:57:51.344Z,11.68
2022-10-08T17:02:55.202Z,11.41
2022-10-08T17:07:59.953Z,11.70
2022-10-08T17:13:03.403Z,11.50
2022-10-08T17:18:06.853Z,11.43
2022-10-08T17:23:12.620Z,10.99
2022-10-08T17:28:16.226Z,10.73
2022-10-08T17:33:19.794Z,10.57
2022-10-08T17:38:24.784Z,10.32
2022-10-08T17:43:29.285Z,10.08
2022-10-08T17:48:32.885Z,9.96
2022-10-08T17:53:39.575Z,9.69
2022-10-08T17:58:43.131Z,9.35
2022-10-08T18:03:53.014Z,9.17
2022-10-08T18:09:00.421Z,8.96
2022-10-08T18:14:04.902Z,8.82
2022-10-08T18:19:09.158Z,8.76
2022-10-08T18:24:14.064Z,8.55
2022-10-08T18:29:17.827Z,8.56
2022-10-08T18:34:21.374Z,8.44
2022-10-08T18:39:32.291Z,8.21
2022-10-08T18:44:35.727Z,8.13
2022-10-08T18:49:39.453Z,7.90
2022-10-08T18:54:47.159Z,7.87
2022-10-08T18:59:50.798Z,7.67
2022-10-08T19:04:59.227Z,7.47
2022-10-08T19:10:05.178Z,7.29
2022-10-08T19:15:09.246Z,7.23
2022-10-08T19:20:14.464Z,7.12
2022-10-08T19:25:26.674Z,6.94
2022-10-08T19:30:36.760Z,6.73
2022-10-08T19:35:41.865Z,6.70
2022-10-08T19:40:46.942Z,6.66
2022-10-08T19:45:50.926Z,6.37
2022-10-08T19:50:54.345Z,6.31
2022-10-08T19:56:05.027Z,6.40
2022-10-08T20:01:12.396Z,6.24
2022-10-08T20:06:24.050Z,6.21
2022-10-08T20:11:30.972Z,6.12
2022-10-08T20:16:36.368Z,6.04
2022-10-08T20:21:39.836Z,6.11
2022-10-08T20:26:46.007Z,5.98
2022-10-08T20:31:58.054Z,5.95
2022-10-08T20:37:03.452Z,5.90
2022-10-08T20:42:08.391Z,5.76
2022-10-08T20:47:11.825Z,5.83
2022-10-08T20:52:15.635Z,5.70
2022-10-08T20:57:20.523Z,5.68
2022-10-08T21:02:24.170Z,5.50
2022-10-08T21:07:27.722Z,5.34
2022-10-08T21:12:34.347Z,5.33
2022-10-08T21:17:38.111Z,5.22
2022-10-08T21:22:41.500Z,5.14
2022-10-08T21:27:46.594Z,5.21
2022-10-08T21:32:50.305Z,4.92
2022-10-08T21:37:54.029Z,5.08
2022-10-08T21:42:59.223Z,4.94
2022-10-08T21:48:02.747Z,4.91
2022-10-08T21:53:07.334Z,4.72
2022-10-08T21:58:12.176Z,4.67
2022-10-08T22:03:17.560Z,4.53
2022-10-08T22:08:21.497Z,4.44
2022-10-08T22:13:26.278Z,4.49
2022-10-08T22:18:31.618Z,4.61
2022-10-08T22:23:36.710Z,4.51
2022-10-08T22:28:42.642Z,4.41
2022-10-08T22:33:47.046Z,4.42
2022-10-08T22:38:51.284Z,4.27
2022-10-08T22:43:56.514Z,4.36
2022-10-08T22:49:00.968Z,4.24
2022-10-08T22:54:05.109Z,4.09
2022-10-08T22:59:10.910Z,3.96
2022-10-08T23:04:14.558Z,4.02
2022-10-08T23:09:18.139Z,3.97
2022-10-08T23:14:23.139Z,3.94
2022-10-08T23:19:26.676Z,3.79
2022-10-08T23:24:30.478Z,3.74
2022-10-08T23:29:35.370Z,3.76
2022-10-08T23:34:38.900Z,3.59
2022-10-08T23:39:42.514Z,3.55
2022-10-08T23:44:47.565Z,3.50
2022-10-08T23:49:51.352Z,3.39
2022-10-08T23:54:54.880Z,3.43
2022-10-08T23:59:59.834Z,3.37
